ETHC

Celle Airport

Germany
METAR ETHC 110220Z 26009KT 9999 FEW010 SCT030 BKN050 03/02 Q1016 BLU
Observed Flight Rules
Dec-11 @ 02:20 UTC (31 minutes ago) Visual Flight Rules
Wind Visibility Clouds
260° at 9 knots 10,000+ meters
  • Few at 1,000' AGL
  • Scattered at 3,000' AGL
  • Broken at 5,000' AGL
Temperatures Readings
Current 3°C / 37°F
Dewpoint 2°C / 36°F
Humidity 93%
Altimeter 30" Hg
Pressure 1016 hPa
Elevation 52
METAR ETHC 110220Z 26009KT 9999 FEW010 SCT030 BKN050 03/02 Q1016 BLU
Observed Flight Rules
Dec-11 @ 02:20 UTC
(31 minutes ago)
VFR
Wind Visibility
260° at 9 knots 10,000+ meters
Clouds
  • Few at 1,000' AGL
  • Scattered at 3,000' AGL
  • Broken at 5,000' AGL
Temperature Dewpoint
3°C / 37°F 2°C / 36°F
Humidity Altimeter Pressure
93% 30" Hg 1016 hPa